Dauntless Aviation
Greetings, Guest! To participate, [sign up for a free account] or [log in]
Airports Europe Czech Republic
LKPO
PRV

Prerov

Prerov, CZECH REPUBLIC

Airport Info
Edit

Location

Latitude / Longitude: 49°25'32"N / 17°24'16"E
  49°25.548'N / 17°24.282'E
  49.4258 / 17.4047

Nearby radio navigation aids

CK PREROV NDB. 63.6° 2.8nm from CK to field.

Runway Information

Runway 06 /24

Dimensions: 8202 x 196 ft.
Surface: ASP
 
Runway 06
Runway 24
Latitude: 49.421419 49.430439
Longitude: 17.389275 17.420478
Elevation: 663 ft. 663 ft.
Runway true heading: 64.6 244.6
 

Instrument Procedures

  Aerodrome Chart
  Aerodrome Chart

IAPs (Instrument Approach Procedures)

  Aerodrome Information (Textual)
  Visual Operations Chart
  POLOM 3A
  ILS/DME Rwy 06
  NDB/DME (GPS) or PAR Rwy 06
  NDB (GPS) or PAR Rwy 06

Departure Procedures

  Instrument Departure Chart HLV 1A - 2Z
  Instrument Departure Chart LUTIM 2A - 2Z
  Instrument Departure Chart MORKO 2Z
  Instrument Departure Chart POLOM 3A
Satellite photo at:
Airport distance calculator
From:
Weather Reports

METAR

LKMT
31.3nm NE
LKMT 202316Z VRB01KT 0200 R22/0450N R04/0450N FG SCT002 07/06 Q1011 RMK REG QNH 1005
LKTB
33.3nm SW
LKTB 202300Z 06006KT CAVOK 09/07 Q1010 NOSIG

TAF

LKMT
31.3nm NE
TAF LKMT 201700Z 2018/2124 05010KT 9999 SCT040 TEMPO 2018/2020 8000 SHRA BKN030 PROB30 TEMPO 2018/2020 04014G26KT 4000 TSRA SCT030CB TEMPO 2020/2106 VRB02KT 4000 BR NSC PROB30 TEMPO 2100/2106 2000 BR TEMPO 2106/2122 7000 SHRA BKN030 PROB30 TEMPO 2112/2120 4000 TSRA SCT030CB
LKTB
33.3nm SW
TAF LKTB 201700Z 2018/2124 07012KT 9999 BKN040 TEMPO 2018/2124 8000 SHRA BKN030 PROB30 TEMPO 2018/2022 07014G28KT 4000 TSRA SCT030CB PROB30 TEMPO 2112/2120 4000 TSRA SCT030CB BECMG 2106/2108 12012KT TEMPO 2108/2118 13014G26KT
Safelog

 

Dauntless Aviation

© 2007-2014 Dauntless Aviation, all rights reserved
Information provided via PilotNav comes from a variety of official and unofficial data sources. As errors are possible, do not use PilotNav for primary flight planning purposes. Verify any information that you receive via PilotNav with current and canonical charts and other official documents. The material in this database is subject to database copyrights held by Dauntless Aviation and may not be copied without the express permission of Dauntless Aviation - licenses for use of part of all of this data are available for purchase; enquire via the Dauntless Aviation helpdesk. A number of mechanisms and markers exist in the database to protect against and identify infringement / copyright. Automated queries against this website are stictly prohibited, and all activity is logged and analyzed.